createdAt,value
2019-01-05T00:01:11.753Z,4.79
2019-01-05T00:07:29.765Z,4.85
2019-01-05T00:13:34.101Z,4.79
2019-01-05T00:19:46.121Z,4.80
2019-01-05T00:26:08.384Z,4.80
2019-01-05T00:32:19.040Z,4.87
2019-01-05T00:38:32.973Z,4.81
2019-01-05T00:44:40.026Z,4.80
2019-01-05T00:50:50.163Z,4.87
2019-01-05T00:57:03.923Z,4.86
2019-01-05T01:03:25.923Z,4.95
2019-01-05T01:09:38.036Z,4.93
2019-01-05T01:15:59.477Z,5.01
2019-01-05T01:22:11.879Z,4.97
2019-01-05T01:28:24.297Z,4.97
2019-01-05T01:34:46.216Z,5.02
2019-01-05T01:41:05.668Z,5.04
2019-01-05T01:47:11.948Z,5.02
2019-01-05T01:53:23.843Z,5.08
2019-01-05T01:59:36.956Z,5.10
2019-01-05T02:05:45.592Z,5.11
2019-01-05T02:12:00.672Z,5.13
2019-01-05T02:18:26.277Z,5.12
2019-01-05T02:24:39.920Z,5.19
2019-01-05T02:31:09.732Z,5.22
2019-01-05T02:38:03.504Z,5.25
2019-01-05T02:44:26.909Z,5.24
2019-01-05T02:51:19.144Z,5.27
2019-01-05T02:57:53.342Z,5.31
2019-01-05T03:04:58.854Z,5.38
2019-01-05T03:11:46.416Z,5.42
2019-01-05T03:18:35.591Z,5.37
2019-01-05T03:25:17.617Z,5.40
2019-01-05T03:31:42.968Z,5.41
2019-01-05T03:38:11.420Z,5.41
2019-01-05T03:44:48.922Z,5.41
2019-01-05T03:51:21.839Z,5.37
2019-01-05T03:57:35.277Z,5.42
2019-01-05T04:04:10.709Z,5.44
2019-01-05T04:10:55.744Z,5.50
2019-01-05T04:17:33.479Z,5.55
2019-01-05T04:24:28.538Z,5.62
2019-01-05T04:30:59.585Z,5.62
2019-01-05T04:37:21.951Z,5.70
2019-01-05T04:44:15.906Z,5.73
2019-01-05T04:51:20.084Z,5.76
2019-01-05T04:58:16.937Z,5.84
2019-01-05T05:05:01.987Z,5.89
2019-01-05T05:11:30.326Z,5.91
2019-01-05T05:18:15.335Z,5.89
2019-01-05T05:24:46.977Z,5.95
2019-01-05T05:31:42.602Z,5.95
2019-01-05T05:38:20.038Z,5.92
2019-01-05T05:44:49.448Z,6.06
2019-01-05T05:51:46.470Z,6.06
2019-01-05T05:58:22.026Z,6.17
2019-01-05T06:04:58.179Z,6.20
2019-01-05T06:11:42.580Z,6.21
2019-01-05T06:18:26.091Z,6.33
2019-01-05T06:25:04.678Z,6.35
2019-01-05T06:31:45.365Z,6.51
2019-01-05T06:38:21.048Z,6.58
2019-01-05T06:44:43.201Z,6.75
2019-01-05T06:51:24.638Z,6.74
2019-01-05T06:58:09.804Z,6.75
2019-01-05T07:04:39.843Z,6.79
2019-01-05T07:11:41.326Z,6.79
2019-01-05T07:18:31.840Z,6.84
2019-01-05T07:25:26.647Z,6.85
2019-01-05T07:32:28.105Z,6.78
2019-01-05T07:39:14.659Z,6.95
2019-01-05T07:45:53.938Z,6.94
2019-01-05T07:52:55.193Z,6.97
2019-01-05T07:59:46.379Z,7.05
2019-01-05T08:07:00.960Z,7.02
2019-01-05T08:13:39.245Z,7.10
2019-01-05T08:20:17.005Z,7.16
2019-01-05T08:27:08.955Z,7.12
2019-01-05T08:34:25.303Z,7.15
2019-01-05T08:41:17.468Z,7.07
2019-01-05T08:47:55.917Z,7.25
2019-01-05T08:54:31.245Z,7.27
2019-01-05T09:01:05.319Z,7.34
2019-01-05T09:07:42.882Z,7.39
2019-01-05T09:14:18.279Z,7.27
2019-01-05T09:20:49.034Z,7.25
2019-01-05T09:27:20.811Z,7.37
2019-01-05T09:34:18.995Z,7.51
2019-01-05T09:41:35.247Z,7.51
2019-01-05T09:48:19.624Z,7.49
2019-01-05T09:55:10.911Z,7.45
2019-01-05T10:01:54.529Z,7.45
2019-01-05T10:08:43.577Z,7.48
2019-01-05T10:15:22.791Z,7.59
2019-01-05T10:22:00.221Z,7.48
2019-01-05T10:28:41.992Z,7.65
2019-01-05T10:35:43.477Z,7.52
2019-01-05T10:42:38.400Z,7.50
2019-01-05T10:48:57.897Z,7.72
2019-01-05T10:56:02.183Z,7.65
2019-01-05T11:02:42.313Z,7.62
2019-01-05T11:09:39.043Z,7.58
2019-01-05T11:16:16.494Z,7.57
2019-01-05T11:22:43.154Z,7.67
2019-01-05T11:29:47.510Z,7.61
2019-01-05T11:36:35.563Z,7.74
2019-01-05T11:43:01.132Z,7.75
2019-01-05T11:49:43.172Z,7.75
2019-01-05T11:56:38.436Z,7.89
2019-01-05T12:03:16.395Z,7.86
2019-01-05T12:10:33.998Z,7.66
2019-01-05T12:17:06.898Z,7.82
2019-01-05T12:23:39.580Z,7.83
2019-01-05T12:30:37.949Z,7.89
2019-01-05T12:37:21.590Z,7.66
2019-01-05T12:44:09.325Z,7.75
2019-01-05T12:50:57.053Z,7.86
2019-01-05T12:57:16.870Z,7.69
2019-01-05T13:04:13.702Z,7.64
2019-01-05T13:11:07.947Z,7.88
2019-01-05T13:17:52.987Z,7.81
2019-01-05T13:24:39.171Z,7.77
2019-01-05T13:31:21.339Z,7.63
2019-01-05T13:38:06.574Z,7.68
2019-01-05T13:45:16.792Z,7.79
2019-01-05T13:51:48.251Z,7.75
2019-01-05T13:57:54.458Z,7.70
2019-01-05T14:04:09.426Z,7.60
2019-01-05T14:10:22.766Z,7.67
2019-01-05T14:16:36.153Z,7.65
2019-01-05T14:22:57.879Z,7.72
2019-01-05T14:29:04.073Z,7.65
2019-01-05T14:35:13.047Z,7.73
2019-01-05T14:41:21.986Z,7.77
2019-01-05T14:47:46.001Z,8.00
2019-01-05T14:53:54.872Z,7.93
2019-01-05T15:00:01.134Z,7.98
2019-01-05T15:06:05.477Z,7.89
2019-01-05T15:12:14.322Z,7.77
2019-01-05T15:18:20.511Z,7.88
2019-01-05T15:24:29.412Z,7.75
2019-01-05T15:30:51.268Z,7.78
2019-01-05T15:37:00.199Z,7.84
2019-01-05T15:43:22.109Z,7.81
2019-01-05T15:49:28.309Z,7.75
2019-01-05T15:55:50.452Z,7.84
2019-01-05T16:02:12.455Z,7.72
2019-01-05T16:08:16.791Z,7.61
2019-01-05T16:14:39.110Z,7.58
2019-01-05T16:20:57.192Z,7.60
2019-01-05T16:27:09.401Z,7.76
2019-01-05T16:33:15.592Z,7.70
2019-01-05T16:39:21.778Z,7.68
2019-01-05T16:45:27.984Z,7.68
2019-01-05T16:51:34.931Z,7.55
2019-01-05T16:57:41.115Z,7.45
2019-01-05T17:03:56.292Z,7.59
2019-01-05T17:10:12.334Z,7.48
2019-01-05T17:16:34.279Z,7.40
2019-01-05T17:22:43.155Z,7.33
2019-01-05T17:29:07.416Z,7.28
2019-01-05T17:35:19.261Z,7.34
2019-01-05T17:41:37.744Z,7.25
2019-01-05T17:47:46.991Z,7.23
2019-01-05T17:54:11.152Z,7.26
2019-01-05T18:00:33.151Z,7.33
2019-01-05T18:06:48.126Z,7.22
2019-01-05T18:13:10.439Z,7.35
2019-01-05T18:19:31.784Z,7.38
2019-01-05T18:25:38.752Z,7.38
2019-01-05T18:31:49.685Z,7.40
2019-01-05T18:38:11.713Z,7.45
2019-01-05T18:44:33.827Z,7.51
2019-01-05T18:50:54.711Z,7.45
2019-01-05T18:57:17.034Z,7.52
2019-01-05T19:03:38.433Z,7.52
2019-01-05T19:09:50.433Z,7.55
2019-01-05T19:16:08.721Z,7.40
2019-01-05T19:22:20.780Z,7.58
2019-01-05T19:28:32.836Z,7.53
2019-01-05T19:34:55.097Z,7.56
2019-01-05T19:41:17.454Z,7.34
2019-01-05T19:47:30.836Z,7.41
2019-01-05T19:53:52.854Z,7.53
2019-01-05T20:00:16.986Z,7.51
2019-01-05T20:06:31.646Z,7.54
2019-01-05T20:12:44.931Z,7.53
2019-01-05T20:18:56.829Z,7.46
2019-01-05T20:25:11.463Z,7.42
2019-01-05T20:31:15.790Z,7.39
2019-01-05T20:37:40.883Z,7.33
2019-01-05T20:43:49.597Z,7.36
2019-01-05T20:50:11.424Z,7.26
2019-01-05T20:56:20.068Z,7.45
2019-01-05T21:02:40.796Z,7.43
2019-01-05T21:09:03.126Z,7.42
2019-01-05T21:15:25.378Z,7.36
2019-01-05T21:21:40.639Z,7.40
2019-01-05T21:27:44.957Z,7.27
2019-01-05T21:34:06.995Z,7.49
2019-01-05T21:40:11.314Z,7.37
2019-01-05T21:46:33.098Z,7.43
2019-01-05T21:52:55.150Z,7.41
2019-01-05T21:59:16.211Z,7.53
2019-01-05T22:05:40.330Z,7.47
2019-01-05T22:11:55.075Z,7.35
2019-01-05T22:18:01.277Z,7.18
2019-01-05T22:24:07.487Z,7.30
2019-01-05T22:30:31.540Z,7.25
2019-01-05T22:36:53.327Z,7.48
2019-01-05T22:43:00.304Z,7.28
2019-01-05T22:49:06.490Z,7.32
2019-01-05T22:55:21.488Z,7.12
2019-01-05T23:01:45.672Z,6.99
2019-01-05T23:08:00.496Z,6.98
2019-01-05T23:14:22.499Z,6.81
2019-01-05T23:20:46.561Z,6.84
2019-01-05T23:27:01.444Z,6.89
2019-01-05T23:33:05.786Z,7.05
2019-01-05T23:39:20.042Z,7.07
2019-01-05T23:45:35.038Z,7.06
2019-01-05T23:51:57.206Z,6.88
2019-01-05T23:58:25.792Z,7.17
